Time;durP1;ratioP1;P1;durP2;ratioP2;P2;SDS_P1;SDS_P2;PMS_P1;PMS_P2;Temp;Humidity;BMP_temperature;BMP_pressure;BME280_temperature;BME280_humidity;BME280_pressure;Samples;Min_cycle;Max_cycle;Signal;HPM_P1;HPM_P2
2022/09/18 00:01:17;;;;;;;7.53;1.45;;;;;;;8.40;100.00;100051.25;6313526;27;1496010;-94
2022/09/18 00:04:19;;;;;;;2.53;1.10;;;;;;;8.47;100.00;100048.19;6354102;27;20115;-91
2022/09/18 00:07:20;;;;;;;10.38;2.22;;;;;;;8.54;100.00;100055.31;6337921;27;20047;-90
2022/09/18 00:10:23;;;;;;;8.45;1.90;;;;;;;8.57;100.00;100055.09;6359771;27;20137;-90
2022/09/18 00:13:24;;;;;;;6.22;1.42;;;;;;;8.58;100.00;100056.72;6350181;27;20516;-93
2022/09/18 00:16:27;;;;;;;7.75;1.75;;;;;;;8.61;100.00;100060.84;6336365;27;20104;-92
2022/09/18 00:19:29;;;;;;;8.13;1.52;;;;;;;8.66;100.00;100060.47;6351368;27;20436;-92
2022/09/18 00:22:30;;;;;;;5.63;1.13;;;;;;;8.70;100.00;100056.72;6359464;27;20076;-91
2022/09/18 00:25:32;;;;;;;7.68;1.17;;;;;;;8.69;100.00;100066.19;6321953;27;20040;-93
2022/09/18 00:28:34;;;;;;;8.75;1.33;;;;;;;8.78;100.00;100072.41;6336430;27;20051;-89
2022/09/18 00:31:36;;;;;;;6.13;1.20;;;;;;;8.82;100.00;100069.47;6338765;27;20172;-92
2022/09/18 00:34:40;;;;;;;9.25;1.23;;;;;;;8.77;100.00;100068.19;6331090;27;20048;-90
2022/09/18 00:37:42;;;;;;;5.45;1.10;;;;;;;8.81;100.00;100070.41;6353709;27;20031;-91
2022/09/18 00:40:44;;;;;;;7.68;1.40;;;;;;;8.83;100.00;100078.84;6343930;27;20047;-89
2022/09/18 00:43:46;;;;;;;3.80;1.08;;;;;;;8.90;100.00;100079.19;6351380;27;20055;-93
2022/09/18 00:46:47;;;;;;;5.68;1.20;;;;;;;8.94;100.00;100077.97;6353411;27;20035;-90
2022/09/18 00:50:02;;;;;;;4.82;1.23;;;;;;;8.94;100.00;100080.56;6345777;27;20424;-92
2022/09/18 00:53:07;;;;;;;8.05;1.58;;;;;;;8.98;100.00;100083.75;6355873;27;20043;-92
2022/09/18 00:56:13;;;;;;;6.53;1.00;;;;;;;8.98;100.00;100076.00;6332604;27;20039;-92
2022/09/18 00:59:23;;;;;;;4.18;0.85;;;;;;;8.99;100.00;100075.88;6318885;28;20927;-92
2022/09/18 01:02:24;;;;;;;5.43;1.15;;;;;;;8.97;100.00;100079.53;6352880;27;20040;-92
2022/09/18 01:06:04;;;;;;;5.22;1.48;;;;;;;8.97;100.00;100071.78;6344941;27;20047;-92
2022/09/18 01:09:25;;;;;;;5.90;1.20;;;;;;;8.95;100.00;100081.41;6339901;27;20578;-90
2022/09/18 01:12:52;;;;;;;5.10;1.17;;;;;;;9.03;100.00;100087.59;6335552;27;20039;-90
2022/09/18 01:16:04;;;;;;;4.38;1.15;;;;;;;9.08;100.00;100083.84;6330782;27;20147;-93
2022/09/18 01:19:54;;;;;;;6.68;1.10;;;;;;;9.12;100.00;100086.06;6306939;27;20509;-92
2022/09/18 01:23:16;;;;;;;3.27;1.17;;;;;;;9.07;100.00;100093.34;6253043;28;20084;-90
2022/09/18 01:26:41;;;;;;;7.45;1.40;;;;;;;9.07;100.00;100093.34;6237977;28;20303;-93
2022/09/18 01:30:01;;;;;;;4.75;1.00;;;;;;;9.10;100.00;100075.03;6257069;28;20041;-89
2022/09/18 01:33:13;;;;;;;9.52;1.40;;;;;;;9.06;100.00;100077.00;6252254;28;20041;-91
2022/09/18 01:36:20;;;;;;;8.40;1.58;;;;;;;9.09;100.00;100083.69;6239309;28;20040;-91
2022/09/18 01:39:40;;;;;;;5.88;1.17;;;;;;;9.04;100.00;100084.09;6240460;28;20045;-92
2022/09/18 01:42:46;;;;;;;5.18;1.20;;;;;;;8.97;100.00;100087.28;6239979;28;20438;-92
2022/09/18 01:45:53;;;;;;;1.63;0.90;;;;;;;8.94;100.00;100095.25;6236261;28;20544;-91
2022/09/18 01:49:06;;;;;;;5.32;1.15;;;;;;;8.77;100.00;100092.25;6259669;28;20370;-91
2022/09/18 01:52:29;;;;;;;4.30;1.10;;;;;;;8.73;100.00;100100.34;6242108;28;20514;-92
2022/09/18 01:55:33;;;;;;;6.28;1.20;;;;;;;8.67;100.00;100093.06;6248880;28;20049;-90
2022/09/18 01:58:36;;;;;;;6.65;1.30;;;;;;;8.60;100.00;100096.13;6265049;27;20387;-91
2022/09/18 02:01:43;;;;;;;7.60;1.25;;;;;;;8.58;100.00;100100.59;6340606;27;20126;-93
2022/09/18 02:04:49;;;;;;;4.35;1.17;;;;;;;8.56;100.00;100086.97;6328931;28;20180;-91
2022/09/18 02:08:10;;;;;;;5.93;1.02;;;;;;;8.41;100.00;100088.16;6316233;27;20036;-92
2022/09/18 02:11:14;;;;;;;10.63;1.42;;;;;;;8.32;100.00;100091.41;6297265;27;20051;-91
2022/09/18 02:14:27;;;;;;;6.28;1.40;;;;;;;8.36;100.00;100083.34;6305904;28;21000;-92
2022/09/18 02:17:58;;;;;;;4.60;0.75;;;;;;;8.31;100.00;100090.59;6325484;28;20043;-92
2022/09/18 02:21:15;;;;;;;6.00;1.05;;;;;;;8.34;100.00;100086.97;6311346;28;20326;-91
2022/09/18 02:24:21;;;;;;;3.25;1.00;;;;;;;8.30;100.00;100081.25;6304119;28;20046;-90
2022/09/18 02:27:24;;;;;;;3.88;0.93;;;;;;;8.30;100.00;100083.81;6317930;28;20535;-91
2022/09/18 02:30:28;;;;;;;6.72;0.95;;;;;;;8.34;100.00;100082.63;6333542;28;20176;-92
2022/09/18 02:33:35;;;;;;;6.35;1.30;;;;;;;8.35;100.00;100084.28;6318731;27;20807;-90
2022/09/18 02:37:05;;;;;;;4.18;1.20;;;;;;;8.25;100.00;100070.47;6317210;28;20047;-93
2022/09/18 02:40:49;;;;;;;2.55;0.88;;;;;;;8.23;100.00;100068.94;6316683;28;20208;-91
2022/09/18 02:44:29;;;;;;;6.05;1.08;;;;;;;8.28;100.00;100071.97;6320041;28;20634;-93
2022/09/18 02:47:58;;;;;;;5.20;1.23;;;;;;;8.31;100.00;100069.97;6308902;27;20055;-93
2022/09/18 02:51:08;;;;;;;5.90;1.37;;;;;;;8.38;100.00;100060.00;6318010;28;20048;-92
2022/09/18 02:54:18;;;;;;;1.80;0.90;;;;;;;8.36;100.00;100072.19;6334136;28;20757;-91
2022/09/18 02:57:55;;;;;;;2.55;0.82;;;;;;;8.38;100.00;100071.16;6314993;28;20497;-92
2022/09/18 03:01:01;;;;;;;3.17;0.88;;;;;;;8.46;100.00;100069.78;6221060;28;20056;-91
2022/09/18 03:04:08;;;;;;;5.43;0.90;;;;;;;8.46;100.00;100070.59;6207344;28;20057;-91
2022/09/18 03:07:22;;;;;;;7.20;1.13;;;;;;;8.49;100.00;100069.53;6184154;28;20443;-92
2022/09/18 03:10:25;;;;;;;4.25;0.77;;;;;;;8.44;100.00;100080.19;6199548;28;20791;-91
2022/09/18 03:13:27;;;;;;;4.15;0.82;;;;;;;8.37;100.00;100056.63;6210898;28;20065;-91
2022/09/18 03:16:28;;;;;;;4.15;0.77;;;;;;;8.33;100.00;100055.22;6214288;28;20083;-93
2022/09/18 03:19:30;;;;;;;7.47;1.10;;;;;;;8.31;100.00;100059.66;6336571;27;20122;-91
2022/09/18 03:22:34;;;;;;;4.45;1.20;;;;;;;8.28;100.00;100064.25;6329737;28;20044;-91
2022/09/18 03:25:36;;;;;;;3.58;0.93;;;;;;;8.29;100.00;100063.28;6327370;27;20043;-93
2022/09/18 03:28:39;;;;;;;7.70;1.10;;;;;;;8.28;100.00;100065.06;6332997;28;20047;-92
2022/09/18 03:31:42;;;;;;;8.70;1.15;;;;;;;8.27;100.00;100063.41;6315157;27;20034;-92
2022/09/18 03:34:45;;;;;;;8.90;1.33;;;;;;;8.17;100.00;100060.72;6318644;28;20444;-92
2022/09/18 03:37:47;;;;;;;4.55;1.25;;;;;;;8.20;100.00;100064.84;6315544;28;20047;-91
2022/09/18 03:40:54;;;;;;;4.95;1.38;;;;;;;8.22;100.00;100065.50;6299727;28;20047;-90
2022/09/18 03:43:55;;;;;;;8.05;1.17;;;;;;;8.15;100.00;100067.75;6319010;28;20484;-92
2022/09/18 03:46:57;;;;;;;3.83;0.90;;;;;;;8.22;100.00;100060.34;6350478;27;20419;-91
2022/09/18 03:50:00;;;;;;;9.70;1.10;;;;;;;8.32;100.00;100063.91;6320908;28;20426;-92
2022/09/18 03:53:07;;;;;;;8.75;1.55;;;;;;;8.35;100.00;100073.97;6316460;28;20127;-89
2022/09/18 03:56:18;;;;;;;5.88;1.55;;;;;;;8.35;100.00;100076.53;6319720;28;20051;-90
2022/09/18 03:59:42;;;;;;;5.72;1.00;;;;;;;8.43;100.00;100073.41;6231192;28;20061;-91
2022/09/18 04:02:50;;;;;;;8.73;1.15;;;;;;;8.40;100.00;100065.91;6230530;28;20608;-90
2022/09/18 04:06:11;;;;;;;4.22;0.80;;;;;;;8.39;100.00;100057.34;6231337;28;20050;-91
2022/09/18 04:09:31;;;;;;;3.92;1.00;;;;;;;8.36;100.00;100065.28;6244916;28;20059;-93
2022/09/18 04:12:33;;;;;;;3.33;0.90;;;;;;;8.40;100.00;100061.56;6316352;28;20043;-91
2022/09/18 04:15:49;;;;;;;8.95;1.17;;;;;;;8.45;100.00;100070.69;6319028;28;20576;-88
2022/09/18 04:18:51;;;;;;;8.13;1.30;;;;;;;8.52;100.00;100064.13;6324282;28;20485;-91
2022/09/18 04:21:55;;;;;;;8.20;1.08;;;;;;;8.51;100.00;100059.91;6313105;28;20138;-93
2022/09/18 04:24:57;;;;;;;6.82;1.40;;;;;;;8.51;100.00;100057.34;6312557;28;20047;-92
2022/09/18 04:28:00;;;;;;;4.65;1.10;;;;;;;8.48;100.00;100057.56;6312060;28;20050;-91
2022/09/18 04:31:02;;;;;;;3.65;1.15;;;;;;;8.41;100.00;100055.47;6335364;28;20039;-92
2022/09/18 04:34:05;;;;;;;7.32;1.25;;;;;;;8.35;100.00;100057.69;6315581;28;20124;-90
2022/09/18 04:37:08;;;;;;;3.78;0.95;;;;;;;8.41;100.00;100059.81;6334868;28;20132;-90
2022/09/18 04:40:12;;;;;;;5.43;0.82;;;;;;;8.46;100.00;100056.88;6321703;28;20071;-93
2022/09/18 04:43:15;;;;;;;7.90;1.05;;;;;;;8.48;100.00;100055.00;6314406;28;20539;-92
2022/09/18 04:46:18;;;;;;;5.50;1.13;;;;;;;8.59;100.00;100058.34;6318847;27;20042;-91
2022/09/18 04:49:20;;;;;;;6.50;1.48;;;;;;;8.77;100.00;100063.00;6329636;27;20357;-90
2022/09/18 04:52:22;;;;;;;3.53;0.98;;;;;;;8.89;100.00;100058.66;6321297;28;20046;-90
2022/09/18 04:55:25;;;;;;;4.25;0.80;;;;;;;8.99;100.00;100056.97;6322590;28;20166;-91
2022/09/18 04:58:27;;;;;;;6.10;1.13;;;;;;;9.02;100.00;100060.16;6305773;27;20461;-95
2022/09/18 05:01:35;;;;;;;5.07;1.40;;;;;;;9.01;100.00;100057.69;6310364;28;20501;-92
2022/09/18 05:04:42;;;;;;;5.05;0.90;;;;;;;9.02;100.00;100070.47;6348117;27;20050;-89
2022/09/18 05:08:07;;;;;;;8.13;1.60;;;;;;;9.08;100.00;100068.34;6349329;27;20066;-93
2022/09/18 05:11:09;;;;;;;5.18;0.90;;;;;;;9.17;100.00;100068.44;6336831;27;20488;-89
2022/09/18 05:14:12;;;;;;;9.48;1.63;;;;;;;9.21;100.00;100074.16;6326128;28;20105;-91
2022/09/18 05:17:18;;;;;;;10.02;1.63;;;;;;;9.10;100.00;100058.72;6331752;27;20052;-94
2022/09/18 05:20:35;;;;;;;5.97;1.35;;;;;;;8.91;100.00;100072.25;6334072;28;20042;-93
2022/09/18 05:23:40;;;;;;;6.25;0.90;;;;;;;8.74;100.00;100066.66;6304047;28;20043;-91
2022/09/18 05:26:44;;;;;;;4.97;0.98;;;;;;;8.73;100.00;100062.44;6318424;28;20043;-94
2022/09/18 05:29:46;;;;;;;3.25;0.88;;;;;;;8.69;100.00;100053.31;6320874;27;20170;-92
2022/09/18 05:32:57;;;;;;;3.25;0.70;;;;;;;8.59;100.00;100052.38;6327139;27;20047;-91
2022/09/18 05:36:03;;;;;;;4.80;0.90;;;;;;;8.51;100.00;100055.56;6333159;27;20086;-91
2022/09/18 05:39:06;;;;;;;5.07;1.58;;;;;;;8.38;100.00;100055.66;6324147;27;20503;-93
2022/09/18 05:42:09;;;;;;;4.57;1.25;;;;;;;8.28;100.00;100061.66;6320164;27;20071;-92
2022/09/18 05:45:12;;;;;;;7.80;1.23;;;;;;;8.27;100.00;100058.25;6353979;27;20047;-90
2022/09/18 05:48:14;;;;;;;3.03;1.15;;;;;;;8.27;100.00;100060.00;6323903;28;20032;-89
2022/09/18 05:51:16;;;;;;;4.95;1.27;;;;;;;8.28;100.00;100053.94;6319101;27;20054;-90
2022/09/18 05:54:19;;;;;;;3.63;1.08;;;;;;;8.31;100.00;100064.81;6319624;28;20625;-91
2022/09/18 05:57:25;;;;;;;3.08;0.85;;;;;;;8.37;100.00;100054.03;6319046;28;20052;-91
2022/09/18 06:00:28;;;;;;;4.47;1.40;;;;;;;8.45;100.00;100060.38;6322889;28;20050;-89
2022/09/18 06:03:38;;;;;;;8.68;1.63;;;;;;;8.48;100.00;100062.75;6321038;28;20179;-91
2022/09/18 06:06:40;;;;;;;5.13;0.95;;;;;;;8.46;100.00;100062.84;6322544;27;20433;-91
2022/09/18 06:09:43;;;;;;;7.38;1.10;;;;;;;8.51;100.00;100068.47;6323251;27;20084;-91
2022/09/18 06:12:46;;;;;;;4.43;1.27;;;;;;;8.62;100.00;100063.31;6320998;28;20039;-90
2022/09/18 06:15:52;;;;;;;4.43;1.00;;;;;;;8.74;100.00;100065.84;6322246;27;20050;-91
2022/09/18 06:19:05;;;;;;;8.82;1.38;;;;;;;8.95;100.00;100068.50;6319738;28;20052;-94
2022/09/18 06:22:07;;;;;;;6.53;1.15;;;;;;;9.12;100.00;100064.56;6317805;28;20166;-91
2022/09/18 06:25:09;;;;;;;4.40;0.85;;;;;;;9.33;100.00;100073.16;6339050;27;20417;-89
2022/09/18 06:28:12;;;;;;;6.68;1.30;;;;;;;9.43;100.00;100079.22;6329921;27;20047;-93
2022/09/18 06:31:14;;;;;;;5.93;0.93;;;;;;;9.45;100.00;100073.94;6341180;27;20583;-91
2022/09/18 06:34:29;;;;;;;4.32;1.00;;;;;;;9.43;100.00;100063.72;6314221;28;20546;-90
2022/09/18 06:37:36;;;;;;;5.18;0.90;;;;;;;9.47;100.00;100067.69;6318957;27;20123;-89
2022/09/18 06:40:53;;;;;;;4.22;1.17;;;;;;;9.48;100.00;100077.06;6309864;28;20064;-89
2022/09/18 06:43:59;;;;;;;3.85;1.00;;;;;;;9.64;100.00;100066.31;6310619;28;20132;-91
2022/09/18 06:47:15;;;;;;;4.72;1.00;;;;;;;9.84;100.00;100076.78;6322778;28;20061;-87
2022/09/18 06:50:21;;;;;;;4.00;1.13;;;;;;;9.87;100.00;100071.34;6311222;28;20052;-90
2022/09/18 06:53:25;;;;;;;3.80;1.20;;;;;;;9.82;100.00;100061.38;6337217;27;20501;-91
2022/09/18 06:56:32;;;;;;;2.67;1.00;;;;;;;9.74;100.00;100066.38;6318958;28;20059;-92
2022/09/18 06:59:36;;;;;;;5.18;1.02;;;;;;;9.77;100.00;100065.31;6317374;27;20551;-91
2022/09/18 07:02:40;;;;;;;4.93;1.05;;;;;;;9.96;100.00;100073.16;6329867;27;20481;-91
2022/09/18 07:06:03;;;;;;;3.50;0.85;;;;;;;10.31;100.00;100064.22;6236773;28;20049;-90
2022/09/18 07:09:20;;;;;;;4.72;1.15;;;;;;;10.47;100.00;100051.59;6218084;28;20053;-92
2022/09/18 07:12:36;;;;;;;4.75;1.00;;;;;;;10.52;100.00;100053.81;6232499;28;20048;-89
2022/09/18 07:15:40;;;;;;;10.95;1.27;;;;;;;10.68;100.00;100061.03;6235172;28;20527;-90
2022/09/18 07:18:47;;;;;;;7.45;1.85;;;;;;;10.87;100.00;100062.84;6236290;28;20352;-91
2022/09/18 07:21:52;;;;;;;3.00;1.05;;;;;;;10.96;100.00;100047.34;6226427;28;20041;-91
2022/09/18 07:24:54;;;;;;;8.38;1.30;;;;;;;11.10;100.00;100056.44;6214440;28;20526;-91
2022/09/18 07:28:06;;;;;;;3.15;1.23;;;;;;;11.23;100.00;100051.03;6214450;28;20147;-90
2022/09/18 07:31:14;;;;;;;7.45;1.50;;;;;;;11.23;100.00;100061.38;6217965;28;20499;-91
2022/09/18 07:34:17;;;;;;;3.08;1.17;;;;;;;11.12;100.00;100054.56;6222416;28;20042;-91
2022/09/18 07:37:19;;;;;;;4.65;0.98;;;;;;;11.17;100.00;100054.16;6230196;28;20053;-89
2022/09/18 07:40:29;;;;;;;3.92;0.98;;;;;;;11.33;100.00;100054.44;6220960;28;20160;-90
2022/09/18 07:43:50;;;;;;;4.68;0.88;;;;;;;11.49;100.00;100073.78;6297549;28;20060;-89
2022/09/18 07:46:54;;;;;;;5.07;0.90;;;;;;;11.67;100.00;100072.09;6321363;28;20548;-90
2022/09/18 07:49:57;;;;;;;3.50;1.02;;;;;;;11.71;100.00;100081.25;6308570;28;20052;-88
2022/09/18 07:53:02;;;;;;;4.50;0.90;;;;;;;11.67;100.00;100068.69;6300346;28;20412;-89
2022/09/18 07:56:13;;;;;;;5.60;1.17;;;;;;;11.61;100.00;100075.25;6317595;28;20564;-90
2022/09/18 07:59:16;;;;;;;2.53;0.85;;;;;;;11.58;100.00;100076.34;6320710;28;20043;-88
2022/09/18 08:02:20;;;;;;;3.38;0.60;;;;;;;11.52;100.00;100065.72;6310549;28;20503;-91
2022/09/18 08:05:22;;;;;;;1.85;0.70;;;;;;;11.52;100.00;100076.91;6315514;28;20043;-89
2022/09/18 08:08:35;;;;;;;3.60;0.68;;;;;;;11.59;100.00;100071.97;6307981;28;20051;-91
2022/09/18 08:11:55;;;;;;;4.90;1.00;;;;;;;11.60;100.00;100071.00;6314464;28;20142;-90
2022/09/18 08:15:22;;;;;;;2.75;0.80;;;;;;;11.71;100.00;100065.69;6315824;28;20051;-90
2022/09/18 08:19:00;;;;;;;2.38;0.73;;;;;;;11.80;100.00;100077.81;6287966;28;20074;-89
2022/09/18 08:22:16;;;;;;;2.08;0.90;;;;;;;11.86;100.00;100066.06;6284012;28;20063;-89
2022/09/18 08:25:26;;;;;;;2.50;0.98;;;;;;;12.01;100.00;100082.03;6268035;28;20055;-89
2022/09/18 08:28:29;;;;;;;1.88;0.88;;;;;;;12.01;100.00;100093.22;6283106;28;20632;-88
2022/09/18 08:31:34;;;;;;;4.70;1.15;;;;;;;12.00;100.00;100067.41;6269023;28;20056;-89
2022/09/18 08:34:38;;;;;;;3.20;1.00;;;;;;;12.16;100.00;100072.81;6286561;28;20158;-88
2022/09/18 08:37:48;;;;;;;3.45;1.00;;;;;;;12.35;100.00;100084.09;6281781;28;20093;-88
2022/09/18 08:41:42;;;;;;;3.72;0.90;;;;;;;12.61;100.00;100063.44;6279085;28;20056;-89
2022/09/18 08:44:49;;;;;;;4.78;0.88;;;;;;;12.67;100.00;100068.03;6277547;28;20135;-88
2022/09/18 08:48:00;;;;;;;6.13;0.90;;;;;;;12.74;100.00;100066.50;6287992;28;20036;-89
2022/09/18 08:51:23;;;;;;;3.00;1.00;;;;;;;12.80;100.00;100054.72;6277573;28;20078;-90
2022/09/18 08:54:54;;;;;;;4.32;0.82;;;;;;;12.90;100.00;100058.88;6310685;27;20450;-89
2022/09/18 08:58:32;;;;;;;4.43;0.80;;;;;;;12.80;100.00;100067.72;6333228;27;20062;-88
2022/09/18 09:01:45;;;;;;;2.20;0.82;;;;;;;12.82;100.00;100065.75;6317490;27;20050;-87
2022/09/18 09:04:50;;;;;;;2.90;0.75;;;;;;;12.87;100.00;100063.56;6316823;28;20138;-88
2022/09/18 09:08:17;;;;;;;3.20;1.02;;;;;;;12.90;100.00;100063.25;6311408;28;20040;-90
2022/09/18 09:11:52;;;;;;;1.65;0.85;;;;;;;12.85;100.00;100066.31;6307255;28;20125;-89
2022/09/18 09:15:23;;;;;;;2.65;0.70;;;;;;;12.85;100.00;100050.72;6330557;28;20497;-88
2022/09/18 09:18:35;;;;;;;2.17;0.80;;;;;;;12.97;100.00;100058.28;6311919;28;20891;-88
2022/09/18 09:22:12;;;;;;;1.85;0.52;;;;;;;12.98;100.00;100039.94;6302659;28;20092;-88
2022/09/18 09:25:30;;;;;;;2.25;0.80;;;;;;;13.13;100.00;100027.25;6328255;28;20047;-88
2022/09/18 09:28:55;;;;;;;2.60;0.80;;;;;;;13.16;100.00;100039.94;6326622;28;20052;-88
2022/09/18 09:32:27;;;;;;;3.33;0.80;;;;;;;13.30;100.00;100043.84;6332543;27;20052;-88
2022/09/18 09:36:01;;;;;;;1.25;0.63;;;;;;;13.44;100.00;100045.91;6224046;28;20531;-86
2022/09/18 09:39:26;;;;;;;1.85;0.68;;;;;;;13.39;100.00;100055.09;6201669;28;20085;-88
2022/09/18 09:43:11;;;;;;;1.85;0.70;;;;;;;13.34;100.00;100050.34;6212849;28;20503;-88
2022/09/18 09:46:51;;;;;;;4.15;0.80;;;;;;;13.13;100.00;100069.63;6169046;28;20082;-89
2022/09/18 09:50:24;;;;;;;1.75;0.60;;;;;;;12.95;100.00;100049.84;6173988;28;20508;-87
2022/09/18 09:53:27;;;;;;;1.58;0.70;;;;;;;13.28;100.00;100036.16;6165587;28;20045;-89
2022/09/18 09:56:41;;;;;;;1.95;1.00;;;;;;;13.55;100.00;100037.84;6170517;28;20038;-88
2022/09/18 10:00:09;;;;;;;4.97;1.17;;;;;;;13.24;100.00;100028.78;6168224;28;20046;-88
2022/09/18 10:03:36;;;;;;;3.75;0.63;;;;;;;13.07;100.00;100010.50;6160951;28;20053;-87
2022/09/18 10:06:50;;;;;;;2.15;0.70;;;;;;;13.13;100.00;100028.06;6165647;28;20042;-87
2022/09/18 10:10:37;;;;;;;2.95;0.80;;;;;;;12.95;100.00;100029.06;6181531;28;20038;-87
2022/09/18 10:13:42;;;;;;;4.00;0.75;;;;;;;12.85;100.00;100029.13;6202560;28;20132;-88
2022/09/18 10:16:47;;;;;;;1.50;0.52;;;;;;;12.76;100.00;100030.81;6216561;28;20045;-87
2022/09/18 10:19:49;;;;;;;1.70;0.95;;;;;;;12.70;100.00;100037.41;6255425;28;20044;-87
2022/09/18 10:22:51;;;;;;;3.17;0.60;;;;;;;12.63;100.00;100032.97;6314264;28;20136;-88
2022/09/18 10:25:59;;;;;;;2.35;0.70;;;;;;;12.50;100.00;100015.97;6317508;27;20035;-88
2022/09/18 10:29:04;;;;;;;3.88;1.13;;;;;;;12.44;100.00;100015.72;6319697;28;20039;-89
2022/09/18 10:32:32;;;;;;;2.78;0.60;;;;;;;12.34;100.00;100004.56;6315664;28;20043;-88
2022/09/18 10:35:44;;;;;;;1.92;0.80;;;;;;;12.41;100.00;100014.22;6312447;28;20066;-88
2022/09/18 10:38:48;;;;;;;2.53;0.60;;;;;;;12.44;100.00;100016.53;6315118;28;20055;-88
2022/09/18 10:42:03;;;;;;;;;;;;;;;12.69;100.00;100035.81;6315585;28;20048;-89
2022/09/18 10:45:22;;;;;;;3.53;0.70;;;;;;;12.71;100.00;100018.25;6307537;27;19924;-89
2022/09/18 10:48:27;;;;;;;5.67;1.07;;;;;;;12.71;100.00;100035.63;6306505;28;20080;-88
2022/09/18 10:51:30;;;;;;;1.58;0.73;;;;;;;12.97;100.00;100035.72;6334565;27;20572;-89
2022/09/18 10:54:35;;;;;;;1.95;0.57;;;;;;;12.96;99.69;100026.28;6298425;28;20043;-88
2022/09/18 10:57:45;;;;;;;3.17;0.90;;;;;;;12.99;100.00;100013.00;6319767;28;20035;-89
2022/09/18 11:00:55;;;;;;;1.90;0.50;;;;;;;13.16;100.00;100037.34;6301537;27;20075;-89
2022/09/18 11:04:05;;;;;;;;;;;;;;;13.27;99.04;100050.16;6318630;27;20631;-87
2022/09/18 11:07:10;;;;;;;1.30;0.60;;;;;;;13.44;97.69;100032.91;6333283;27;20421;-88
2022/09/18 11:10:23;;;;;;;2.72;0.75;;;;;;;13.55;95.29;100030.03;6342457;27;20040;-89
2022/09/18 11:13:27;;;;;;;1.40;0.50;;;;;;;13.67;96.01;100035.00;6315795;27;20602;-89
2022/09/18 11:16:50;;;;;;;1.90;0.47;;;;;;;13.55;96.00;100027.44;6325313;27;20488;-89
2022/09/18 11:19:59;;;;;;;1.50;0.60;;;;;;;13.38;97.06;100015.28;6306708;27;20143;-91
2022/09/18 11:23:20;;;;;;;3.20;0.68;;;;;;;13.28;97.12;100007.56;6308043;28;20063;-89
2022/09/18 11:26:28;;;;;;;2.22;0.55;;;;;;;13.21;95.96;99988.31;6298551;28;20036;-88
2022/09/18 11:29:38;;;;;;;2.83;0.65;;;;;;;13.41;97.06;99988.16;6313440;28;20075;-89
2022/09/18 11:32:50;;;;;;;3.88;1.10;;;;;;;13.59;92.80;99994.16;6332664;27;20048;-88
2022/09/18 11:36:06;;;;;;;1.00;0.50;;;;;;;13.53;91.05;99992.16;6298085;28;20368;-88
2022/09/18 11:39:22;;;;;;;1.52;0.35;;;;;;;13.46;90.85;99991.94;6313956;27;20043;-88
2022/09/18 11:42:28;;;;;;;2.70;0.60;;;;;;;13.34;94.04;99988.78;6313024;28;20058;-88
2022/09/18 11:45:52;;;;;;;2.38;0.60;;;;;;;13.43;94.73;99996.63;6331545;27;20219;-90
2022/09/18 11:49:04;;;;;;;1.83;0.40;;;;;;;13.41;93.63;99996.78;6315486;28;20113;-88
2022/09/18 11:52:36;;;;;;;0.95;0.30;;;;;;;13.17;94.00;99981.81;6312930;28;20047;-91
2022/09/18 11:55:46;;;;;;;1.08;0.47;;;;;;;13.05;96.15;99989.03;6330154;27;20031;-89
2022/09/18 11:58:54;;;;;;;1.40;0.43;;;;;;;13.00;96.38;99974.88;6324062;28;20063;-89
2022/09/18 12:02:25;;;;;;;1.73;0.55;;;;;;;13.06;97.26;99980.25;6313237;28;20048;-88
2022/09/18 12:05:32;;;;;;;0.70;0.40;;;;;;;13.05;98.88;99985.63;6227917;28;20053;-87
2022/09/18 12:08:55;;;;;;;1.17;0.40;;;;;;;13.06;96.69;99995.84;6230999;28;20038;-87
2022/09/18 12:12:12;;;;;;;1.15;0.50;;;;;;;12.86;96.29;99984.00;6228869;28;20057;-88
2022/09/18 12:15:17;;;;;;;2.25;0.60;;;;;;;12.95;97.87;99977.91;6221098;28;20049;-89
2022/09/18 12:18:25;;;;;;;0.90;0.43;;;;;;;12.98;97.53;99976.78;6230383;28;20415;-87
2022/09/18 12:21:40;;;;;;;1.20;0.52;;;;;;;13.09;94.94;99979.97;6228508;28;20176;-89
2022/09/18 12:24:42;;;;;;;2.97;0.50;;;;;;;13.42;97.49;99976.81;6230345;28;20102;-89
2022/09/18 12:28:15;;;;;;;1.05;0.50;;;;;;;13.37;95.61;99986.88;6227643;28;20045;-88
2022/09/18 12:31:36;;;;;;;2.22;0.50;;;;;;;13.12;94.10;99977.06;6222109;28;20180;-87
2022/09/18 12:34:47;;;;;;;1.17;0.60;;;;;;;13.19;96.46;99953.91;6215464;28;20042;-89
2022/09/18 12:38:27;;;;;;;0.40;0.40;;;;;;;13.13;96.27;99967.47;6228341;28;20096;-87
2022/09/18 12:41:58;;;;;;;0.85;0.52;;;;;;;12.90;98.94;99946.38;6248987;28;20048;-88
2022/09/18 12:45:13;;;;;;;1.25;0.50;;;;;;;12.60;100.00;99976.16;6317331;28;20047;-87
2022/09/18 12:48:26;;;;;;;0.73;0.55;;;;;;;12.41;100.00;99958.91;6333629;28;20047;-88
2022/09/18 12:52:01;;;;;;;1.55;0.57;;;;;;;12.50;100.00;99971.00;6316479;28;20055;-88
2022/09/18 12:55:13;;;;;;;2.05;0.60;;;;;;;12.29;100.00;99940.94;6253321;28;20061;-88
2022/09/18 12:58:18;;;;;;;1.50;0.65;;;;;;;12.10;100.00;99956.66;6255583;28;20348;-89
2022/09/18 13:01:40;;;;;;;0.80;0.55;;;;;;;11.86;100.00;99946.75;6253193;28;20152;-88
2022/09/18 13:04:49;;;;;;;1.23;0.40;;;;;;;11.72;100.00;99944.63;6254720;28;20098;-89
2022/09/18 13:07:53;;;;;;;1.73;0.60;;;;;;;11.71;100.00;99961.97;6238491;28;20057;-89
2022/09/18 13:11:05;;;;;;;1.90;0.70;;;;;;;11.99;100.00;99946.47;6256357;28;20041;-89
2022/09/18 13:14:20;;;;;;;1.42;0.70;;;;;;;12.00;100.00;99950.66;6260205;28;20534;-88
2022/09/18 13:17:29;;;;;;;3.55;0.45;;;;;;;11.93;100.00;99957.41;6257940;28;20048;-89
2022/09/18 13:20:39;;;;;;;1.23;0.50;;;;;;;11.84;100.00;99938.31;6261647;28;20135;-89
2022/09/18 13:23:42;;;;;;;;;;;;;;;11.82;100.00;99943.63;6240289;28;20044;-89
2022/09/18 13:26:46;;;;;;;2.55;0.73;;;;;;;11.81;100.00;99942.00;6266377;28;20478;-89
2022/09/18 13:29:57;;;;;;;2.38;0.90;;;;;;;11.81;100.00;99942.00;6256421;28;20049;-90
2022/09/18 13:33:01;;;;;;;3.80;0.60;;;;;;;11.83;100.00;99934.91;6327151;27;20052;-90
2022/09/18 13:36:03;;;;;;;1.83;0.60;;;;;;;11.96;100.00;99924.22;6316408;27;20477;-89
2022/09/18 13:39:27;;;;;;;1.27;0.60;;;;;;;12.49;100.00;99927.84;6318336;27;20563;-89
2022/09/18 13:42:33;;;;;;;1.40;0.73;;;;;;;13.14;100.00;99923.16;6336455;27;20335;-90
2022/09/18 13:45:37;;;;;;;1.20;0.50;;;;;;;13.65;97.69;99917.28;6320243;27;20039;-89
2022/09/18 13:48:39;;;;;;;4.07;0.57;;;;;;;13.66;95.08;99921.50;6329223;27;20127;-89
2022/09/18 13:51:40;;;;;;;3.42;0.70;;;;;;;13.43;95.40;99914.25;6330524;28;20044;-88
2022/09/18 13:55:00;;;;;;;1.15;0.60;;;;;;;13.40;97.03;99919.75;6332680;28;20509;-89
2022/09/18 13:58:30;;;;;;;2.42;0.55;;;;;;;13.51;92.63;99932.47;6313212;28;20485;-90
2022/09/18 14:01:44;;;;;;;1.05;0.55;;;;;;;13.46;95.58;99920.94;6336379;27;20050;-90
2022/09/18 14:04:48;;;;;;;1.33;0.60;;;;;;;13.18;93.69;99915.88;6310569;28;20036;-89
2022/09/18 14:07:59;;;;;;;3.03;0.95;;;;;;;12.76;100.00;99932.13;6316406;28;20052;-90
2022/09/18 14:11:09;;;;;;;1.77;0.60;;;;;;;12.04;100.00;99932.09;6307099;28;20397;-91
2022/09/18 14:14:22;;;;;;;3.05;0.98;;;;;;;11.23;100.00;99926.66;6330147;27;20362;-93
2022/09/18 14:17:24;;;;;;;3.08;0.52;;;;;;;10.57;100.00;99959.28;6308172;27;20040;-91
2022/09/18 14:20:27;;;;;;;10.02;1.15;;;;;;;9.60;100.00;99942.66;6312453;28;20040;-94
2022/09/18 14:23:47;;;;;;;22.58;1.75;;;;;;;8.55;100.00;99991.69;6321362;27;20425;-90
2022/09/18 14:26:59;;;;;;;3.88;0.80;;;;;;;7.80;100.00;100011.16;6322938;28;20130;-91
2022/09/18 14:30:28;;;;;;;2.83;0.80;;;;;;;7.52;100.00;99996.94;6335609;27;20520;-89
2022/09/18 14:33:32;;;;;;;4.60;1.00;;;;;;;7.38;100.00;99986.84;6334928;27;20043;-89
2022/09/18 14:36:46;;;;;;;2.90;0.70;;;;;;;7.48;100.00;99969.81;6308012;28;20028;-91
2022/09/18 14:39:48;;;;;;;4.38;1.10;;;;;;;7.43;100.00;99961.56;6339320;27;20585;-89
2022/09/18 14:42:50;;;;;;;1.92;0.75;;;;;;;7.44;100.00;99973.53;6341509;27;20095;-89
2022/09/18 14:45:53;;;;;;;0.82;0.47;;;;;;;7.50;100.00;99965.34;6341317;27;20040;-89
2022/09/18 14:49:00;;;;;;;3.28;0.60;;;;;;;7.45;100.00;99955.41;6326611;28;20043;-92